sensor_id;sensor_type;location;lat;lon;timestamp;temperature;humidity
14735;DHT22;7458;49.002;8.472;2022-08-19T00:01:31;23.50;98.80
14735;DHT22;7458;49.002;8.472;2022-08-19T00:04:01;23.40;99.10
14735;DHT22;7458;49.002;8.472;2022-08-19T00:06:30;23.40;99.40
14735;DHT22;7458;49.002;8.472;2022-08-19T00:08:56;23.50;99.60
14735;DHT22;7458;49.002;8.472;2022-08-19T00:11:23;23.50;99.70
14735;DHT22;7458;49.002;8.472;2022-08-19T00:13:51;23.50;99.90
14735;DHT22;7458;49.002;8.472;2022-08-19T00:16:18;23.50;99.90
14735;DHT22;7458;49.002;8.472;2022-08-19T00:18:48;23.50;99.90
14735;DHT22;7458;49.002;8.472;2022-08-19T00:21:14;23.50;99.90
14735;DHT22;7458;49.002;8.472;2022-08-19T00:23:41;23.50;99.90
14735;DHT22;7458;49.002;8.472;2022-08-19T00:26:10;23.40;99.90
14735;DHT22;7458;49.002;8.472;2022-08-19T00:28:36;23.50;99.90
14735;DHT22;7458;49.002;8.472;2022-08-19T00:31:04;23.40;99.90
14735;DHT22;7458;49.002;8.472;2022-08-19T00:33:32;23.40;99.90
14735;DHT22;7458;49.002;8.472;2022-08-19T00:36:06;23.40;99.90
14735;DHT22;7458;49.002;8.472;2022-08-19T00:38:35;23.30;99.90
14735;DHT22;7458;49.002;8.472;2022-08-19T00:41:04;23.30;99.90
14735;DHT22;7458;49.002;8.472;2022-08-19T00:43:31;23.20;99.90
14735;DHT22;7458;49.002;8.472;2022-08-19T00:45:57;23.20;99.90
14735;DHT22;7458;49.002;8.472;2022-08-19T00:48:23;23.20;99.90
14735;DHT22;7458;49.002;8.472;2022-08-19T00:50:50;23.20;99.90
14735;DHT22;7458;49.002;8.472;2022-08-19T00:53:27;23.10;99.90
14735;DHT22;7458;49.002;8.472;2022-08-19T00:55:58;23.10;99.90
14735;DHT22;7458;49.002;8.472;2022-08-19T00:58:29;23.00;99.90
14735;DHT22;7458;49.002;8.472;2022-08-19T01:00:57;23.10;99.90
14735;DHT22;7458;49.002;8.472;2022-08-19T01:03:23;23.00;99.90
14735;DHT22;7458;49.002;8.472;2022-08-19T01:05:50;23.00;99.90
14735;DHT22;7458;49.002;8.472;2022-08-19T01:08:19;23.10;99.90
14735;DHT22;7458;49.002;8.472;2022-08-19T01:10:51;23.10;99.90
14735;DHT22;7458;49.002;8.472;2022-08-19T01:13:23;23.20;99.90
14735;DHT22;7458;49.002;8.472;2022-08-19T01:16:00;23.10;99.90
14735;DHT22;7458;49.002;8.472;2022-08-19T01:18:30;23.10;99.90
14735;DHT22;7458;49.002;8.472;2022-08-19T01:21:00;23.00;99.90
14735;DHT22;7458;49.002;8.472;2022-08-19T01:23:31;23.00;99.90
14735;DHT22;7458;49.002;8.472;2022-08-19T01:26:21;23.10;99.90
14735;DHT22;7458;49.002;8.472;2022-08-19T01:28:50;23.00;99.90
14735;DHT22;7458;49.002;8.472;2022-08-19T01:31:22;22.90;99.90
14735;DHT22;7458;49.002;8.472;2022-08-19T01:33:51;22.90;99.90
14735;DHT22;7458;49.002;8.472;2022-08-19T01:36:32;22.80;99.90
14735;DHT22;7458;49.002;8.472;2022-08-19T01:39:05;22.90;99.90
14735;DHT22;7458;49.002;8.472;2022-08-19T01:41:33;22.90;99.90
14735;DHT22;7458;49.002;8.472;2022-08-19T01:44:01;22.90;99.90
14735;DHT22;7458;49.002;8.472;2022-08-19T01:46:29;22.90;99.90
14735;DHT22;7458;49.002;8.472;2022-08-19T01:48:57;22.90;99.90
14735;DHT22;7458;49.002;8.472;2022-08-19T01:51:23;22.90;99.90
14735;DHT22;7458;49.002;8.472;2022-08-19T01:53:50;22.80;99.90
14735;DHT22;7458;49.002;8.472;2022-08-19T01:56:18;22.80;99.90
14735;DHT22;7458;49.002;8.472;2022-08-19T01:58:51;22.90;99.90
14735;DHT22;7458;49.002;8.472;2022-08-19T02:01:22;22.90;99.90
14735;DHT22;7458;49.002;8.472;2022-08-19T02:03:48;22.90;99.90
14735;DHT22;7458;49.002;8.472;2022-08-19T02:06:14;22.80;99.90
14735;DHT22;7458;49.002;8.472;2022-08-19T02:08:42;22.80;99.90
14735;DHT22;7458;49.002;8.472;2022-08-19T02:11:22;22.70;99.90
14735;DHT22;7458;49.002;8.472;2022-08-19T02:13:52;22.80;99.90
14735;DHT22;7458;49.002;8.472;2022-08-19T02:16:19;22.80;99.90
14735;DHT22;7458;49.002;8.472;2022-08-19T02:18:47;22.80;99.90
14735;DHT22;7458;49.002;8.472;2022-08-19T02:21:19;22.80;99.90
14735;DHT22;7458;49.002;8.472;2022-08-19T02:23:48;22.80;99.90
14735;DHT22;7458;49.002;8.472;2022-08-19T02:26:15;22.90;99.90
14735;DHT22;7458;49.002;8.472;2022-08-19T02:28:42;22.90;99.90
14735;DHT22;7458;49.002;8.472;2022-08-19T02:31:15;22.80;99.90
14735;DHT22;7458;49.002;8.472;2022-08-19T02:33:43;22.80;99.90
14735;DHT22;7458;49.002;8.472;2022-08-19T02:36:11;22.80;99.90
14735;DHT22;7458;49.002;8.472;2022-08-19T02:38:39;22.80;99.90
14735;DHT22;7458;49.002;8.472;2022-08-19T02:41:10;22.80;99.90
14735;DHT22;7458;49.002;8.472;2022-08-19T02:43:39;22.80;99.90
14735;DHT22;7458;49.002;8.472;2022-08-19T02:48:43;22.70;99.90
14735;DHT22;7458;49.002;8.472;2022-08-19T02:51:16;22.60;99.90
14735;DHT22;7458;49.002;8.472;2022-08-19T02:53:47;22.60;99.90
14735;DHT22;7458;49.002;8.472;2022-08-19T02:56:13;22.50;99.90
14735;DHT22;7458;49.002;8.472;2022-08-19T02:58:39;22.60;99.90
14735;DHT22;7458;49.002;8.472;2022-08-19T03:01:06;22.50;99.90
14735;DHT22;7458;49.002;8.472;2022-08-19T03:03:33;22.50;99.90
14735;DHT22;7458;49.002;8.472;2022-08-19T03:06:13;22.50;99.90
14735;DHT22;7458;49.002;8.472;2022-08-19T03:08:43;22.40;99.90
14735;DHT22;7458;49.002;8.472;2022-08-19T03:13:45;22.40;99.90
14735;DHT22;7458;49.002;8.472;2022-08-19T03:16:12;22.40;99.90
14735;DHT22;7458;49.002;8.472;2022-08-19T03:18:38;22.40;99.90
14735;DHT22;7458;49.002;8.472;2022-08-19T03:21:04;22.50;99.90
14735;DHT22;7458;49.002;8.472;2022-08-19T03:23:31;22.50;99.90
14735;DHT22;7458;49.002;8.472;2022-08-19T03:25:58;22.40;99.90
14735;DHT22;7458;49.002;8.472;2022-08-19T03:28:24;22.40;99.90
14735;DHT22;7458;49.002;8.472;2022-08-19T03:31:17;22.30;99.90
14735;DHT22;7458;49.002;8.472;2022-08-19T03:33:46;22.30;99.90
14735;DHT22;7458;49.002;8.472;2022-08-19T03:36:13;22.30;99.90
14735;DHT22;7458;49.002;8.472;2022-08-19T03:38:55;22.30;99.90
14735;DHT22;7458;49.002;8.472;2022-08-19T03:41:25;22.30;99.90
14735;DHT22;7458;49.002;8.472;2022-08-19T03:43:54;22.20;99.90
14735;DHT22;7458;49.002;8.472;2022-08-19T03:46:26;22.30;99.90
14735;DHT22;7458;49.002;8.472;2022-08-19T03:48:56;22.20;99.90
14735;DHT22;7458;49.002;8.472;2022-08-19T03:51:29;22.20;99.90
14735;DHT22;7458;49.002;8.472;2022-08-19T03:53:59;22.20;99.90
14735;DHT22;7458;49.002;8.472;2022-08-19T03:56:27;22.20;99.90
14735;DHT22;7458;49.002;8.472;2022-08-19T03:58:54;22.20;99.90
14735;DHT22;7458;49.002;8.472;2022-08-19T04:01:23;22.20;99.90
14735;DHT22;7458;49.002;8.472;2022-08-19T04:03:52;22.20;99.90
14735;DHT22;7458;49.002;8.472;2022-08-19T04:08:52;22.10;99.90
14735;DHT22;7458;49.002;8.472;2022-08-19T04:11:22;22.10;99.90
14735;DHT22;7458;49.002;8.472;2022-08-19T04:13:51;22.00;99.90
14735;DHT22;7458;49.002;8.472;2022-08-19T04:16:21;21.90;99.90
14735;DHT22;7458;49.002;8.472;2022-08-19T04:18:49;21.90;99.90
14735;DHT22;7458;49.002;8.472;2022-08-19T04:21:20;21.90;99.90
14735;DHT22;7458;49.002;8.472;2022-08-19T04:23:48;21.90;99.90
14735;DHT22;7458;49.002;8.472;2022-08-19T04:26:21;21.90;99.90
14735;DHT22;7458;49.002;8.472;2022-08-19T04:28:49;21.90;99.90
14735;DHT22;7458;49.002;8.472;2022-08-19T04:31:29;21.90;99.90
14735;DHT22;7458;49.002;8.472;2022-08-19T04:33:57;22.00;99.90
14735;DHT22;7458;49.002;8.472;2022-08-19T04:36:31;22.00;99.90
14735;DHT22;7458;49.002;8.472;2022-08-19T04:39:04;22.00;99.90
14735;DHT22;7458;49.002;8.472;2022-08-19T04:41:33;22.00;99.90
14735;DHT22;7458;49.002;8.472;2022-08-19T04:44:18;22.10;99.90
14735;DHT22;7458;49.002;8.472;2022-08-19T04:46:45;22.00;99.90
14735;DHT22;7458;49.002;8.472;2022-08-19T04:49:13;22.00;99.90
14735;DHT22;7458;49.002;8.472;2022-08-19T04:51:43;22.00;99.90
14735;DHT22;7458;49.002;8.472;2022-08-19T04:54:11;21.90;99.90
14735;DHT22;7458;49.002;8.472;2022-08-19T04:56:39;22.00;99.90
14735;DHT22;7458;49.002;8.472;2022-08-19T04:59:06;21.90;99.90
14735;DHT22;7458;49.002;8.472;2022-08-19T05:01:34;22.00;99.90
14735;DHT22;7458;49.002;8.472;2022-08-19T05:04:04;22.00;99.90
14735;DHT22;7458;49.002;8.472;2022-08-19T05:06:33;22.10;99.90
14735;DHT22;7458;49.002;8.472;2022-08-19T05:09:04;22.20;99.90
14735;DHT22;7458;49.002;8.472;2022-08-19T05:11:34;22.20;99.90
14735;DHT22;7458;49.002;8.472;2022-08-19T05:14:05;22.20;99.90
14735;DHT22;7458;49.002;8.472;2022-08-19T05:16:33;22.20;99.90
14735;DHT22;7458;49.002;8.472;2022-08-19T05:18:59;22.20;99.90
14735;DHT22;7458;49.002;8.472;2022-08-19T05:21:44;22.20;99.90
14735;DHT22;7458;49.002;8.472;2022-08-19T05:24:29;22.20;99.90
14735;DHT22;7458;49.002;8.472;2022-08-19T05:26:55;22.20;99.90
14735;DHT22;7458;49.002;8.472;2022-08-19T05:29:23;22.20;99.90
14735;DHT22;7458;49.002;8.472;2022-08-19T05:31:52;22.20;99.90
14735;DHT22;7458;49.002;8.472;2022-08-19T05:34:20;22.20;99.90
14735;DHT22;7458;49.002;8.472;2022-08-19T05:36:49;22.10;99.90
14735;DHT22;7458;49.002;8.472;2022-08-19T05:39:19;22.10;99.90
14735;DHT22;7458;49.002;8.472;2022-08-19T05:41:48;22.20;99.90
14735;DHT22;7458;49.002;8.472;2022-08-19T05:44:17;22.30;99.90
14735;DHT22;7458;49.002;8.472;2022-08-19T05:46:43;22.20;99.90
14735;DHT22;7458;49.002;8.472;2022-08-19T05:49:12;22.30;99.90
14735;DHT22;7458;49.002;8.472;2022-08-19T05:51:39;22.20;99.90
14735;DHT22;7458;49.002;8.472;2022-08-19T05:54:06;22.30;99.90
14735;DHT22;7458;49.002;8.472;2022-08-19T05:56:33;22.30;99.90
14735;DHT22;7458;49.002;8.472;2022-08-19T05:59:04;22.30;99.90
14735;DHT22;7458;49.002;8.472;2022-08-19T06:01:35;22.30;99.90
14735;DHT22;7458;49.002;8.472;2022-08-19T06:04:04;22.40;99.90
14735;DHT22;7458;49.002;8.472;2022-08-19T06:06:32;22.30;99.90
14735;DHT22;7458;49.002;8.472;2022-08-19T06:09:01;22.30;99.90
14735;DHT22;7458;49.002;8.472;2022-08-19T06:11:41;22.30;99.90
14735;DHT22;7458;49.002;8.472;2022-08-19T06:14:18;22.30;99.90
14735;DHT22;7458;49.002;8.472;2022-08-19T06:16:46;22.30;99.90
14735;DHT22;7458;49.002;8.472;2022-08-19T06:19:14;22.40;99.90
14735;DHT22;7458;49.002;8.472;2022-08-19T06:21:44;22.40;99.90
14735;DHT22;7458;49.002;8.472;2022-08-19T06:24:15;22.40;99.90
14735;DHT22;7458;49.002;8.472;2022-08-19T06:26:44;22.50;99.90
14735;DHT22;7458;49.002;8.472;2022-08-19T06:29:14;22.60;99.90
14735;DHT22;7458;49.002;8.472;2022-08-19T06:31:44;22.60;99.90
14735;DHT22;7458;49.002;8.472;2022-08-19T06:34:12;22.60;99.90
14735;DHT22;7458;49.002;8.472;2022-08-19T06:36:41;22.70;99.90
14735;DHT22;7458;49.002;8.472;2022-08-19T06:39:11;22.80;99.90
14735;DHT22;7458;49.002;8.472;2022-08-19T06:41:45;22.80;99.90
14735;DHT22;7458;49.002;8.472;2022-08-19T06:44:13;22.90;99.90
14735;DHT22;7458;49.002;8.472;2022-08-19T06:46:41;22.90;99.90
14735;DHT22;7458;49.002;8.472;2022-08-19T06:49:08;22.90;99.90
14735;DHT22;7458;49.002;8.472;2022-08-19T06:51:40;23.00;99.90
14735;DHT22;7458;49.002;8.472;2022-08-19T06:54:08;23.10;99.90
14735;DHT22;7458;49.002;8.472;2022-08-19T06:56:35;23.20;99.90
14735;DHT22;7458;49.002;8.472;2022-08-19T06:59:07;23.30;99.90
14735;DHT22;7458;49.002;8.472;2022-08-19T07:01:41;23.30;99.90
14735;DHT22;7458;49.002;8.472;2022-08-19T07:04:13;23.40;99.90
14735;DHT22;7458;49.002;8.472;2022-08-19T07:06:41;23.50;99.90
14735;DHT22;7458;49.002;8.472;2022-08-19T07:09:10;23.60;99.90
14735;DHT22;7458;49.002;8.472;2022-08-19T07:11:48;23.60;99.90
14735;DHT22;7458;49.002;8.472;2022-08-19T07:14:18;23.70;99.90
14735;DHT22;7458;49.002;8.472;2022-08-19T07:16:49;23.70;99.90
14735;DHT22;7458;49.002;8.472;2022-08-19T07:19:17;23.80;99.90
14735;DHT22;7458;49.002;8.472;2022-08-19T07:21:44;23.90;99.90
14735;DHT22;7458;49.002;8.472;2022-08-19T07:24:12;23.70;99.90
14735;DHT22;7458;49.002;8.472;2022-08-19T07:26:41;23.80;99.90
14735;DHT22;7458;49.002;8.472;2022-08-19T07:29:09;23.80;99.90
14735;DHT22;7458;49.002;8.472;2022-08-19T07:31:36;23.80;99.90
14735;DHT22;7458;49.002;8.472;2022-08-19T07:34:07;23.90;99.90
14735;DHT22;7458;49.002;8.472;2022-08-19T07:36:38;24.10;99.90
14735;DHT22;7458;49.002;8.472;2022-08-19T07:39:12;24.30;99.90
14735;DHT22;7458;49.002;8.472;2022-08-19T07:41:40;24.40;99.90
14735;DHT22;7458;49.002;8.472;2022-08-19T07:44:07;24.50;99.90
14735;DHT22;7458;49.002;8.472;2022-08-19T07:46:36;24.60;99.90
14735;DHT22;7458;49.002;8.472;2022-08-19T07:49:05;24.50;99.90
14735;DHT22;7458;49.002;8.472;2022-08-19T07:51:32;24.40;99.90
14735;DHT22;7458;49.002;8.472;2022-08-19T07:53:58;24.40;99.90
14735;DHT22;7458;49.002;8.472;2022-08-19T07:56:26;24.30;99.90
14735;DHT22;7458;49.002;8.472;2022-08-19T07:58:53;24.30;99.90
14735;DHT22;7458;49.002;8.472;2022-08-19T08:01:23;24.30;99.90
14735;DHT22;7458;49.002;8.472;2022-08-19T08:03:52;24.40;99.90
14735;DHT22;7458;49.002;8.472;2022-08-19T08:06:38;24.40;99.90
14735;DHT22;7458;49.002;8.472;2022-08-19T08:09:32;24.40;99.90
14735;DHT22;7458;49.002;8.472;2022-08-19T08:14:36;24.60;99.90
14735;DHT22;7458;49.002;8.472;2022-08-19T08:17:05;24.80;99.90
14735;DHT22;7458;49.002;8.472;2022-08-19T08:19:32;25.10;99.80
14735;DHT22;7458;49.002;8.472;2022-08-19T08:22:00;25.20;99.10
14735;DHT22;7458;49.002;8.472;2022-08-19T08:24:29;25.20;98.60
14735;DHT22;7458;49.002;8.472;2022-08-19T08:26:57;25.10;98.30
14735;DHT22;7458;49.002;8.472;2022-08-19T08:29:26;25.10;98.10
14735;DHT22;7458;49.002;8.472;2022-08-19T08:31:53;25.20;98.00
14735;DHT22;7458;49.002;8.472;2022-08-19T08:34:20;25.50;97.80
14735;DHT22;7458;49.002;8.472;2022-08-19T08:36:47;25.70;96.90
14735;DHT22;7458;49.002;8.472;2022-08-19T08:39:18;26.10;96.80
14735;DHT22;7458;49.002;8.472;2022-08-19T08:42:19;26.30;95.50
14735;DHT22;7458;49.002;8.472;2022-08-19T08:45:06;26.50;94.50
14735;DHT22;7458;49.002;8.472;2022-08-19T08:47:44;26.60;94.00
14735;DHT22;7458;49.002;8.472;2022-08-19T08:50:19;26.70;93.50
14735;DHT22;7458;49.002;8.472;2022-08-19T08:52:53;26.90;93.10
14735;DHT22;7458;49.002;8.472;2022-08-19T08:55:25;26.90;92.30
14735;DHT22;7458;49.002;8.472;2022-08-19T08:58:20;27.10;92.00
14735;DHT22;7458;49.002;8.472;2022-08-19T09:00:57;27.20;91.40
14735;DHT22;7458;49.002;8.472;2022-08-19T09:03:26;27.10;90.80
14735;DHT22;7458;49.002;8.472;2022-08-19T09:06:04;27.40;90.40
14735;DHT22;7458;49.002;8.472;2022-08-19T09:09:01;27.50;89.80
14735;DHT22;7458;49.002;8.472;2022-08-19T09:14:46;27.90;86.30
14735;DHT22;7458;49.002;8.472;2022-08-19T09:17:14;27.70;84.50
14735;DHT22;7458;49.002;8.472;2022-08-19T09:19:53;27.60;84.80
14735;DHT22;7458;49.002;8.472;2022-08-19T09:22:22;27.40;82.90
14735;DHT22;7458;49.002;8.472;2022-08-19T09:24:50;27.50;83.10
14735;DHT22;7458;49.002;8.472;2022-08-19T09:27:21;27.90;81.60
14735;DHT22;7458;49.002;8.472;2022-08-19T09:29:49;28.30;80.00
14735;DHT22;7458;49.002;8.472;2022-08-19T09:32:16;28.60;77.60
14735;DHT22;7458;49.002;8.472;2022-08-19T09:34:43;28.60;75.30
14735;DHT22;7458;49.002;8.472;2022-08-19T09:37:10;28.50;75.90
14735;DHT22;7458;49.002;8.472;2022-08-19T09:39:40;28.70;77.10
14735;DHT22;7458;49.002;8.472;2022-08-19T09:42:08;29.00;75.10
14735;DHT22;7458;49.002;8.472;2022-08-19T09:44:40;28.90;73.60
14735;DHT22;7458;49.002;8.472;2022-08-19T09:47:07;29.00;74.10
14735;DHT22;7458;49.002;8.472;2022-08-19T09:49:35;29.10;73.10
14735;DHT22;7458;49.002;8.472;2022-08-19T09:52:01;29.20;73.40
14735;DHT22;7458;49.002;8.472;2022-08-19T09:54:27;29.20;72.10
14735;DHT22;7458;49.002;8.472;2022-08-19T09:56:54;29.20;71.50
14735;DHT22;7458;49.002;8.472;2022-08-19T09:59:21;29.20;70.60
14735;DHT22;7458;49.002;8.472;2022-08-19T10:01:47;29.10;69.80
14735;DHT22;7458;49.002;8.472;2022-08-19T10:04:13;29.00;70.20
14735;DHT22;7458;49.002;8.472;2022-08-19T10:06:39;29.00;67.80
14735;DHT22;7458;49.002;8.472;2022-08-19T10:09:09;28.90;66.80
14735;DHT22;7458;49.002;8.472;2022-08-19T10:11:39;28.90;68.30
14735;DHT22;7458;49.002;8.472;2022-08-19T10:14:06;29.20;67.40
14735;DHT22;7458;49.002;8.472;2022-08-19T10:16:33;29.80;67.90
14735;DHT22;7458;49.002;8.472;2022-08-19T10:19:01;30.10;67.60
14735;DHT22;7458;49.002;8.472;2022-08-19T10:21:30;30.40;65.10
14735;DHT22;7458;49.002;8.472;2022-08-19T10:24:02;31.00;62.00
14735;DHT22;7458;49.002;8.472;2022-08-19T10:26:33;31.00;59.90
14735;DHT22;7458;49.002;8.472;2022-08-19T10:29:03;30.60;58.60
14735;DHT22;7458;49.002;8.472;2022-08-19T10:31:31;30.30;59.50
14735;DHT22;7458;49.002;8.472;2022-08-19T10:33:59;30.00;60.00
14735;DHT22;7458;49.002;8.472;2022-08-19T10:36:32;30.30;59.60
14735;DHT22;7458;49.002;8.472;2022-08-19T10:39:04;30.50;58.10
14735;DHT22;7458;49.002;8.472;2022-08-19T10:41:36;31.00;56.60
14735;DHT22;7458;49.002;8.472;2022-08-19T10:44:07;31.00;56.50
14735;DHT22;7458;49.002;8.472;2022-08-19T10:46:38;32.60;56.70
14735;DHT22;7458;49.002;8.472;2022-08-19T10:49:09;31.10;55.20
14735;DHT22;7458;49.002;8.472;2022-08-19T10:51:37;31.30;55.10
14735;DHT22;7458;49.002;8.472;2022-08-19T10:54:23;31.70;54.20
14735;DHT22;7458;49.002;8.472;2022-08-19T10:57:09;31.60;54.10
14735;DHT22;7458;49.002;8.472;2022-08-19T10:59:35;31.00;54.40
14735;DHT22;7458;49.002;8.472;2022-08-19T11:02:04;31.10;54.00
14735;DHT22;7458;49.002;8.472;2022-08-19T11:04:32;31.10;53.90
14735;DHT22;7458;49.002;8.472;2022-08-19T11:06:58;30.90;53.50
14735;DHT22;7458;49.002;8.472;2022-08-19T11:09:25;30.60;54.10
14735;DHT22;7458;49.002;8.472;2022-08-19T11:11:54;30.60;55.20
14735;DHT22;7458;49.002;8.472;2022-08-19T11:14:22;30.70;54.40
14735;DHT22;7458;49.002;8.472;2022-08-19T11:16:50;30.60;55.40
14735;DHT22;7458;49.002;8.472;2022-08-19T11:19:18;30.70;54.40
14735;DHT22;7458;49.002;8.472;2022-08-19T11:21:47;30.50;54.30
14735;DHT22;7458;49.002;8.472;2022-08-19T11:24:18;30.50;54.80
14735;DHT22;7458;49.002;8.472;2022-08-19T11:26:47;30.80;54.70
14735;DHT22;7458;49.002;8.472;2022-08-19T11:29:16;31.20;54.50
14735;DHT22;7458;49.002;8.472;2022-08-19T11:31:47;31.20;53.00
14735;DHT22;7458;49.002;8.472;2022-08-19T11:34:26;31.20;52.20
14735;DHT22;7458;49.002;8.472;2022-08-19T11:36:54;31.10;53.00
14735;DHT22;7458;49.002;8.472;2022-08-19T11:39:26;31.30;53.10
14735;DHT22;7458;49.002;8.472;2022-08-19T11:41:54;31.70;52.10
14735;DHT22;7458;49.002;8.472;2022-08-19T11:44:20;31.80;52.60
14735;DHT22;7458;49.002;8.472;2022-08-19T11:46:46;31.40;52.50
14735;DHT22;7458;49.002;8.472;2022-08-19T11:49:14;30.90;51.70
14735;DHT22;7458;49.002;8.472;2022-08-19T11:51:44;30.70;52.60
14735;DHT22;7458;49.002;8.472;2022-08-19T11:54:13;30.60;53.30
14735;DHT22;7458;49.002;8.472;2022-08-19T11:56:40;30.60;53.60
14735;DHT22;7458;49.002;8.472;2022-08-19T11:59:07;30.60;53.70
14735;DHT22;7458;49.002;8.472;2022-08-19T12:01:34;30.50;54.10
14735;DHT22;7458;49.002;8.472;2022-08-19T12:04:00;30.30;54.10
14735;DHT22;7458;49.002;8.472;2022-08-19T12:06:29;30.10;54.40
14735;DHT22;7458;49.002;8.472;2022-08-19T12:09:04;29.90;54.60
14735;DHT22;7458;49.002;8.472;2022-08-19T12:11:33;29.90;55.00
14735;DHT22;7458;49.002;8.472;2022-08-19T12:13:59;30.30;54.70
14735;DHT22;7458;49.002;8.472;2022-08-19T12:16:27;30.40;52.40
14735;DHT22;7458;49.002;8.472;2022-08-19T12:18:56;30.40;52.80
14735;DHT22;7458;49.002;8.472;2022-08-19T12:21:25;30.50;53.20
14735;DHT22;7458;49.002;8.472;2022-08-19T12:23:56;30.30;53.30
14735;DHT22;7458;49.002;8.472;2022-08-19T12:26:25;30.30;53.50
14735;DHT22;7458;49.002;8.472;2022-08-19T12:28:53;30.10;53.50
14735;DHT22;7458;49.002;8.472;2022-08-19T12:31:19;30.00;53.70
14735;DHT22;7458;49.002;8.472;2022-08-19T12:33:46;29.90;53.80
14735;DHT22;7458;49.002;8.472;2022-08-19T12:36:15;29.90;54.00
14735;DHT22;7458;49.002;8.472;2022-08-19T12:38:43;29.90;54.10
14735;DHT22;7458;49.002;8.472;2022-08-19T12:41:13;29.80;54.50
14735;DHT22;7458;49.002;8.472;2022-08-19T12:43:43;29.70;54.80
14735;DHT22;7458;49.002;8.472;2022-08-19T12:46:10;29.70;55.00
14735;DHT22;7458;49.002;8.472;2022-08-19T12:48:37;29.70;54.40
14735;DHT22;7458;49.002;8.472;2022-08-19T12:51:10;29.60;54.00
14735;DHT22;7458;49.002;8.472;2022-08-19T12:53:39;29.60;54.20
14735;DHT22;7458;49.002;8.472;2022-08-19T12:56:07;29.50;53.90
14735;DHT22;7458;49.002;8.472;2022-08-19T12:58:35;29.70;54.30
14735;DHT22;7458;49.002;8.472;2022-08-19T13:01:12;29.80;54.00
14735;DHT22;7458;49.002;8.472;2022-08-19T13:03:40;29.80;53.40
14735;DHT22;7458;49.002;8.472;2022-08-19T13:06:06;29.80;52.90
14735;DHT22;7458;49.002;8.472;2022-08-19T13:08:32;29.90;53.00
14735;DHT22;7458;49.002;8.472;2022-08-19T13:11:13;29.90;52.10
14735;DHT22;7458;49.002;8.472;2022-08-19T13:13:42;30.10;52.70
14735;DHT22;7458;49.002;8.472;2022-08-19T13:16:10;30.50;52.70
14735;DHT22;7458;49.002;8.472;2022-08-19T13:18:39;30.70;51.40
14735;DHT22;7458;49.002;8.472;2022-08-19T13:21:08;30.90;51.00
14735;DHT22;7458;49.002;8.472;2022-08-19T13:23:39;30.90;50.50
14735;DHT22;7458;49.002;8.472;2022-08-19T13:26:07;30.60;50.80
14735;DHT22;7458;49.002;8.472;2022-08-19T13:28:35;30.50;50.80
14735;DHT22;7458;49.002;8.472;2022-08-19T13:31:22;30.40;50.60
14735;DHT22;7458;49.002;8.472;2022-08-19T13:34:07;30.20;50.50
14735;DHT22;7458;49.002;8.472;2022-08-19T13:36:35;29.90;49.90
14735;DHT22;7458;49.002;8.472;2022-08-19T13:39:03;29.70;49.80
14735;DHT22;7458;49.002;8.472;2022-08-19T13:41:30;29.60;50.00
14735;DHT22;7458;49.002;8.472;2022-08-19T13:43:56;29.60;50.30
14735;DHT22;7458;49.002;8.472;2022-08-19T13:46:22;29.50;49.50
14735;DHT22;7458;49.002;8.472;2022-08-19T13:48:48;29.60;49.70
14735;DHT22;7458;49.002;8.472;2022-08-19T13:51:15;29.70;49.60
14735;DHT22;7458;49.002;8.472;2022-08-19T13:53:43;29.70;48.30
14735;DHT22;7458;49.002;8.472;2022-08-19T13:56:13;29.80;47.70
14735;DHT22;7458;49.002;8.472;2022-08-19T13:58:45;29.90;46.90
14735;DHT22;7458;49.002;8.472;2022-08-19T14:01:11;30.00;46.00
14735;DHT22;7458;49.002;8.472;2022-08-19T14:03:37;30.10;46.40
14735;DHT22;7458;49.002;8.472;2022-08-19T14:06:03;30.20;47.70
14735;DHT22;7458;49.002;8.472;2022-08-19T14:08:29;30.30;47.90
14735;DHT22;7458;49.002;8.472;2022-08-19T14:10:57;30.40;47.30
14735;DHT22;7458;49.002;8.472;2022-08-19T14:13:23;30.30;47.40
14735;DHT22;7458;49.002;8.472;2022-08-19T14:15:50;30.30;48.00
14735;DHT22;7458;49.002;8.472;2022-08-19T14:18:18;30.20;47.10
14735;DHT22;7458;49.002;8.472;2022-08-19T14:20:44;30.20;47.30
14735;DHT22;7458;49.002;8.472;2022-08-19T14:23:10;30.20;47.40
14735;DHT22;7458;49.002;8.472;2022-08-19T14:25:38;30.10;47.60
14735;DHT22;7458;49.002;8.472;2022-08-19T14:28:04;30.10;47.50
14735;DHT22;7458;49.002;8.472;2022-08-19T14:30:31;30.00;48.00
14735;DHT22;7458;49.002;8.472;2022-08-19T14:33:01;30.00;48.60
14735;DHT22;7458;49.002;8.472;2022-08-19T14:35:31;30.10;48.80
14735;DHT22;7458;49.002;8.472;2022-08-19T14:38:03;30.10;47.40
14735;DHT22;7458;49.002;8.472;2022-08-19T14:40:31;30.10;46.00
14735;DHT22;7458;49.002;8.472;2022-08-19T14:43:00;30.30;46.90
14735;DHT22;7458;49.002;8.472;2022-08-19T14:45:31;30.40;46.00
14735;DHT22;7458;49.002;8.472;2022-08-19T14:47:59;30.50;46.10
14735;DHT22;7458;49.002;8.472;2022-08-19T14:50:26;30.50;45.80
14735;DHT22;7458;49.002;8.472;2022-08-19T14:53:01;30.60;45.50
14735;DHT22;7458;49.002;8.472;2022-08-19T14:55:32;30.60;45.40
14735;DHT22;7458;49.002;8.472;2022-08-19T14:57:59;30.60;45.30
14735;DHT22;7458;49.002;8.472;2022-08-19T15:00:25;30.50;44.60
14735;DHT22;7458;49.002;8.472;2022-08-19T15:02:51;30.50;44.70
14735;DHT22;7458;49.002;8.472;2022-08-19T15:05:20;30.50;44.80
14735;DHT22;7458;49.002;8.472;2022-08-19T15:07:46;30.50;45.00
14735;DHT22;7458;49.002;8.472;2022-08-19T15:10:13;30.60;45.20
14735;DHT22;7458;49.002;8.472;2022-08-19T15:12:40;30.50;44.90
14735;DHT22;7458;49.002;8.472;2022-08-19T15:15:10;30.30;44.70
14735;DHT22;7458;49.002;8.472;2022-08-19T15:17:43;30.30;45.00
14735;DHT22;7458;49.002;8.472;2022-08-19T15:20:16;30.10;44.50
14735;DHT22;7458;49.002;8.472;2022-08-19T15:22:43;30.00;45.00
14735;DHT22;7458;49.002;8.472;2022-08-19T15:25:11;30.00;45.30
14735;DHT22;7458;49.002;8.472;2022-08-19T15:27:38;30.00;45.50
14735;DHT22;7458;49.002;8.472;2022-08-19T15:30:06;30.00;45.60
14735;DHT22;7458;49.002;8.472;2022-08-19T15:32:33;29.90;45.90
14735;DHT22;7458;49.002;8.472;2022-08-19T15:35:00;30.00;46.20
14735;DHT22;7458;49.002;8.472;2022-08-19T15:37:27;30.00;46.10
14735;DHT22;7458;49.002;8.472;2022-08-19T15:39:53;30.00;46.30
14735;DHT22;7458;49.002;8.472;2022-08-19T15:42:19;29.90;46.90
14735;DHT22;7458;49.002;8.472;2022-08-19T15:44:46;29.90;47.50
14735;DHT22;7458;49.002;8.472;2022-08-19T15:47:13;30.00;47.90
14735;DHT22;7458;49.002;8.472;2022-08-19T15:49:39;30.00;48.10
14735;DHT22;7458;49.002;8.472;2022-08-19T15:52:05;30.00;47.50
14735;DHT22;7458;49.002;8.472;2022-08-19T15:54:32;30.00;47.10
14735;DHT22;7458;49.002;8.472;2022-08-19T15:56:59;30.10;46.50
14735;DHT22;7458;49.002;8.472;2022-08-19T15:59:44;30.10;46.30
14735;DHT22;7458;49.002;8.472;2022-08-19T16:02:28;30.20;46.10
14735;DHT22;7458;49.002;8.472;2022-08-19T16:05:17;30.20;45.80
14735;DHT22;7458;49.002;8.472;2022-08-19T16:08:05;30.10;45.90
14735;DHT22;7458;49.002;8.472;2022-08-19T16:10:33;30.10;46.20
14735;DHT22;7458;49.002;8.472;2022-08-19T16:12:59;30.10;46.50
14735;DHT22;7458;49.002;8.472;2022-08-19T16:15:26;30.10;46.40